sensor_id;sensor_type;location;lat;lon;timestamp;P1;durP1;ratioP1;P2;durP2;ratioP2
29814;SDS011;16708;50.426;7.664;2024-02-15T00:36:09;23.10;;;9.20;;
29814;SDS011;16708;50.426;7.664;2024-02-15T00:50:47;20.30;;;9.30;;
29814;SDS011;16708;50.426;7.664;2024-02-15T01:05:21;18.00;;;8.40;;
29814;SDS011;16708;50.426;7.664;2024-02-15T01:19:58;19.40;;;8.10;;
29814;SDS011;16708;50.426;7.664;2024-02-15T01:34:35;28.60;;;9.80;;
29814;SDS011;16708;50.426;7.664;2024-02-15T01:49:12;16.10;;;7.90;;
29814;SDS011;16708;50.426;7.664;2024-02-15T02:03:53;17.20;;;8.80;;
29814;SDS011;16708;50.426;7.664;2024-02-15T02:18:28;16.70;;;7.30;;
29814;SDS011;16708;50.426;7.664;2024-02-15T02:47:29;16.30;;;6.90;;
29814;SDS011;16708;50.426;7.664;2024-02-15T03:02:06;18.40;;;6.90;;
29814;SDS011;16708;50.426;7.664;2024-02-15T03:16:43;15.20;;;7.00;;
29814;SDS011;16708;50.426;7.664;2024-02-15T03:31:20;20.10;;;6.70;;
29814;SDS011;16708;50.426;7.664;2024-02-15T03:45:59;20.40;;;7.40;;
29814;SDS011;16708;50.426;7.664;2024-02-15T04:00:34;17.50;;;6.20;;
29814;SDS011;16708;50.426;7.664;2024-02-15T04:15:10;18.60;;;6.90;;
29814;SDS011;16708;50.426;7.664;2024-02-15T04:29:47;11.40;;;5.70;;
29814;SDS011;16708;50.426;7.664;2024-02-15T04:44:22;14.20;;;5.40;;
29814;SDS011;16708;50.426;7.664;2024-02-15T04:58:58;16.00;;;6.00;;
29814;SDS011;16708;50.426;7.664;2024-02-15T05:13:35;13.30;;;5.80;;
29814;SDS011;16708;50.426;7.664;2024-02-15T05:28:12;20.10;;;7.30;;
29814;SDS011;16708;50.426;7.664;2024-02-15T05:57:26;30.20;;;13.20;;
29814;SDS011;16708;50.426;7.664;2024-02-15T06:12:03;28.00;;;11.00;;
29814;SDS011;16708;50.426;7.664;2024-02-15T06:41:17;27.30;;;12.30;;
29814;SDS011;16708;50.426;7.664;2024-02-15T07:10:33;28.90;;;9.70;;
29814;SDS011;16708;50.426;7.664;2024-02-15T07:25:11;17.40;;;7.30;;
29814;SDS011;16708;50.426;7.664;2024-02-15T07:39:50;14.60;;;5.30;;
29814;SDS011;16708;50.426;7.664;2024-02-15T07:54:28;11.80;;;3.80;;
29814;SDS011;16708;50.426;7.664;2024-02-15T08:23:38;7.70;;;2.60;;
29814;SDS011;16708;50.426;7.664;2024-02-15T08:38:15;6.60;;;2.40;;
29814;SDS011;16708;50.426;7.664;2024-02-15T08:52:53;8.50;;;3.60;;
29814;SDS011;16708;50.426;7.664;2024-02-15T09:07:31;6.20;;;1.80;;
29814;SDS011;16708;50.426;7.664;2024-02-15T09:22:09;5.30;;;1.90;;
29814;SDS011;16708;50.426;7.664;2024-02-15T09:36:47;14.20;;;3.50;;
29814;SDS011;16708;50.426;7.664;2024-02-15T09:51:24;3.00;;;1.20;;
29814;SDS011;16708;50.426;7.664;2024-02-15T10:40:19;6.70;;;1.80;;
29814;SDS011;16708;50.426;7.664;2024-02-15T10:45:14;3.40;;;0.90;;
29814;SDS011;16708;50.426;7.664;2024-02-15T10:50:09;3.30;;;1.20;;
29814;SDS011;16708;50.426;7.664;2024-02-15T10:55:05;5.00;;;1.40;;
29814;SDS011;16708;50.426;7.664;2024-02-15T10:59:59;3.40;;;1.20;;
29814;SDS011;16708;50.426;7.664;2024-02-15T11:04:53;2.60;;;1.00;;
29814;SDS011;16708;50.426;7.664;2024-02-15T11:09:48;3.60;;;1.10;;
29814;SDS011;16708;50.426;7.664;2024-02-15T11:14:42;2.60;;;0.90;;
29814;SDS011;16708;50.426;7.664;2024-02-15T11:19:36;3.50;;;1.20;;
29814;SDS011;16708;50.426;7.664;2024-02-15T11:24:31;5.30;;;1.40;;
29814;SDS011;16708;50.426;7.664;2024-02-15T11:29:25;4.00;;;1.30;;
29814;SDS011;16708;50.426;7.664;2024-02-15T11:34:20;4.90;;;1.10;;
29814;SDS011;16708;50.426;7.664;2024-02-15T11:39:14;4.20;;;1.90;;
29814;SDS011;16708;50.426;7.664;2024-02-15T11:49:03;4.30;;;1.10;;
29814;SDS011;16708;50.426;7.664;2024-02-15T11:58:50;4.30;;;1.20;;
29814;SDS011;16708;50.426;7.664;2024-02-15T12:03:44;3.70;;;1.30;;
29814;SDS011;16708;50.426;7.664;2024-02-15T12:13:30;4.80;;;1.30;;
29814;SDS011;16708;50.426;7.664;2024-02-15T12:18:23;5.50;;;1.50;;
29814;SDS011;16708;50.426;7.664;2024-02-15T12:23:17;4.70;;;1.40;;
29814;SDS011;16708;50.426;7.664;2024-02-15T12:28:11;3.80;;;1.20;;
29814;SDS011;16708;50.426;7.664;2024-02-15T12:42:53;5.90;;;1.10;;
29814;SDS011;16708;50.426;7.664;2024-02-15T12:57:35;2.60;;;1.10;;
29814;SDS011;16708;50.426;7.664;2024-02-15T13:02:28;4.00;;;1.40;;
29814;SDS011;16708;50.426;7.664;2024-02-15T13:12:14;3.30;;;1.00;;
29814;SDS011;16708;50.426;7.664;2024-02-15T13:17:08;2.40;;;0.90;;
29814;SDS011;16708;50.426;7.664;2024-02-15T13:22:02;3.00;;;0.90;;
29814;SDS011;16708;50.426;7.664;2024-02-15T13:26:56;2.40;;;1.00;;
29814;SDS011;16708;50.426;7.664;2024-02-15T13:31:49;2.90;;;0.90;;
29814;SDS011;16708;50.426;7.664;2024-02-15T13:36:41;2.90;;;0.90;;
29814;SDS011;16708;50.426;7.664;2024-02-15T13:41:35;3.50;;;1.00;;
29814;SDS011;16708;50.426;7.664;2024-02-15T13:46:28;2.90;;;1.00;;
29814;SDS011;16708;50.426;7.664;2024-02-15T13:51:22;4.90;;;1.50;;
29814;SDS011;16708;50.426;7.664;2024-02-15T13:56:16;5.30;;;1.90;;
29814;SDS011;16708;50.426;7.664;2024-02-15T14:01:13;4.40;;;1.30;;
29814;SDS011;16708;50.426;7.664;2024-02-15T14:06:05;5.90;;;1.50;;
29814;SDS011;16708;50.426;7.664;2024-02-15T14:10:58;4.30;;;1.20;;
29814;SDS011;16708;50.426;7.664;2024-02-15T14:15:52;4.20;;;1.30;;
29814;SDS011;16708;50.426;7.664;2024-02-15T14:20:46;3.30;;;1.00;;
29814;SDS011;16708;50.426;7.664;2024-02-15T14:25:40;3.50;;;1.00;;
29814;SDS011;16708;50.426;7.664;2024-02-15T14:30:34;4.60;;;1.80;;
29814;SDS011;16708;50.426;7.664;2024-02-15T14:35:30;4.60;;;1.40;;
29814;SDS011;16708;50.426;7.664;2024-02-15T14:40:24;14.20;;;4.60;;
29814;SDS011;16708;50.426;7.664;2024-02-15T14:45:16;6.50;;;2.60;;
29814;SDS011;16708;50.426;7.664;2024-02-15T14:50:11;12.10;;;4.90;;
29814;SDS011;16708;50.426;7.664;2024-02-15T14:55:05;6.80;;;2.20;;
29814;SDS011;16708;50.426;7.664;2024-02-15T15:00:00;6.00;;;2.50;;
29814;SDS011;16708;50.426;7.664;2024-02-15T15:04:54;6.40;;;1.60;;
29814;SDS011;16708;50.426;7.664;2024-02-15T15:09:48;4.80;;;1.70;;
29814;SDS011;16708;50.426;7.664;2024-02-15T15:14:42;4.70;;;1.40;;
29814;SDS011;16708;50.426;7.664;2024-02-15T15:19:37;5.00;;;1.90;;
29814;SDS011;16708;50.426;7.664;2024-02-15T15:24:30;4.20;;;1.10;;
29814;SDS011;16708;50.426;7.664;2024-02-15T15:29:24;3.90;;;1.40;;
29814;SDS011;16708;50.426;7.664;2024-02-15T15:34:19;7.30;;;4.10;;
29814;SDS011;16708;50.426;7.664;2024-02-15T15:39:13;6.80;;;2.90;;
29814;SDS011;16708;50.426;7.664;2024-02-15T15:44:06;3.30;;;1.90;;
29814;SDS011;16708;50.426;7.664;2024-02-15T15:48:59;4.30;;;1.10;;
29814;SDS011;16708;50.426;7.664;2024-02-15T15:53:53;3.30;;;1.20;;
29814;SDS011;16708;50.426;7.664;2024-02-15T15:58:47;9.80;;;3.00;;
29814;SDS011;16708;50.426;7.664;2024-02-15T16:03:42;5.50;;;2.20;;
29814;SDS011;16708;50.426;7.664;2024-02-15T16:08:35;7.30;;;1.50;;
29814;SDS011;16708;50.426;7.664;2024-02-15T16:18:21;3.90;;;1.50;;
29814;SDS011;16708;50.426;7.664;2024-02-15T16:23:15;5.00;;;1.40;;
29814;SDS011;16708;50.426;7.664;2024-02-15T16:28:09;6.10;;;2.10;;
29814;SDS011;16708;50.426;7.664;2024-02-15T16:33:04;4.60;;;1.60;;
29814;SDS011;16708;50.426;7.664;2024-02-15T16:37:58;6.40;;;1.50;;
29814;SDS011;16708;50.426;7.664;2024-02-15T16:42:52;5.70;;;1.60;;
29814;SDS011;16708;50.426;7.664;2024-02-15T16:47:46;3.80;;;1.50;;
29814;SDS011;16708;50.426;7.664;2024-02-15T16:52:40;5.40;;;1.70;;
29814;SDS011;16708;50.426;7.664;2024-02-15T16:57:34;6.80;;;2.50;;
29814;SDS011;16708;50.426;7.664;2024-02-15T17:02:26;7.50;;;2.40;;
29814;SDS011;16708;50.426;7.664;2024-02-15T17:07:20;6.30;;;1.70;;
29814;SDS011;16708;50.426;7.664;2024-02-15T17:12:14;5.70;;;1.40;;
29814;SDS011;16708;50.426;7.664;2024-02-15T17:17:10;3.90;;;1.80;;
29814;SDS011;16708;50.426;7.664;2024-02-15T17:22:03;8.80;;;2.20;;
29814;SDS011;16708;50.426;7.664;2024-02-15T17:26:58;10.30;;;2.20;;
29814;SDS011;16708;50.426;7.664;2024-02-15T17:31:52;6.10;;;1.80;;
29814;SDS011;16708;50.426;7.664;2024-02-15T17:36:45;7.30;;;1.70;;
29814;SDS011;16708;50.426;7.664;2024-02-15T17:41:39;7.90;;;2.40;;
29814;SDS011;16708;50.426;7.664;2024-02-15T17:46:33;3.30;;;1.50;;
29814;SDS011;16708;50.426;7.664;2024-02-15T17:51:26;5.90;;;2.00;;
29814;SDS011;16708;50.426;7.664;2024-02-15T17:56:20;3.70;;;1.30;;
29814;SDS011;16708;50.426;7.664;2024-02-15T18:01:14;52.20;;;21.50;;
29814;SDS011;16708;50.426;7.664;2024-02-15T18:06:08;5.80;;;1.90;;
29814;SDS011;16708;50.426;7.664;2024-02-15T18:11:02;11.50;;;4.70;;
29814;SDS011;16708;50.426;7.664;2024-02-15T18:15:57;6.10;;;1.60;;
29814;SDS011;16708;50.426;7.664;2024-02-15T18:20:51;6.60;;;2.10;;
29814;SDS011;16708;50.426;7.664;2024-02-15T18:25:45;6.60;;;1.90;;
29814;SDS011;16708;50.426;7.664;2024-02-15T18:30:39;4.10;;;1.30;;
29814;SDS011;16708;50.426;7.664;2024-02-15T18:35:32;6.70;;;1.80;;
29814;SDS011;16708;50.426;7.664;2024-02-15T18:40:26;6.60;;;1.50;;
29814;SDS011;16708;50.426;7.664;2024-02-15T18:45:21;8.20;;;2.60;;
29814;SDS011;16708;50.426;7.664;2024-02-15T18:50:17;6.70;;;2.00;;
29814;SDS011;16708;50.426;7.664;2024-02-15T18:55:10;5.00;;;1.70;;
29814;SDS011;16708;50.426;7.664;2024-02-15T19:00:05;4.10;;;1.40;;
29814;SDS011;16708;50.426;7.664;2024-02-15T19:04:59;5.90;;;1.80;;
29814;SDS011;16708;50.426;7.664;2024-02-15T19:09:54;6.00;;;2.00;;
29814;SDS011;16708;50.426;7.664;2024-02-15T19:14:48;3.40;;;1.30;;
29814;SDS011;16708;50.426;7.664;2024-02-15T19:19:42;5.50;;;1.50;;
29814;SDS011;16708;50.426;7.664;2024-02-15T19:24:37;8.40;;;2.40;;
29814;SDS011;16708;50.426;7.664;2024-02-15T19:29:31;7.40;;;1.60;;
29814;SDS011;16708;50.426;7.664;2024-02-15T19:34:25;5.60;;;1.30;;
29814;SDS011;16708;50.426;7.664;2024-02-15T19:44:14;15.60;;;3.70;;
29814;SDS011;16708;50.426;7.664;2024-02-15T19:49:08;8.00;;;1.90;;
29814;SDS011;16708;50.426;7.664;2024-02-15T19:54:02;6.60;;;1.80;;
29814;SDS011;16708;50.426;7.664;2024-02-15T19:58:57;6.50;;;1.80;;
29814;SDS011;16708;50.426;7.664;2024-02-15T20:03:51;4.90;;;1.60;;
29814;SDS011;16708;50.426;7.664;2024-02-15T20:08:45;6.30;;;1.40;;
29814;SDS011;16708;50.426;7.664;2024-02-15T20:13:39;6.20;;;1.40;;
29814;SDS011;16708;50.426;7.664;2024-02-15T20:18:33;13.70;;;4.40;;
29814;SDS011;16708;50.426;7.664;2024-02-15T20:28:22;10.50;;;2.80;;
29814;SDS011;16708;50.426;7.664;2024-02-15T20:33:17;6.20;;;1.60;;
29814;SDS011;16708;50.426;7.664;2024-02-15T20:38:10;7.90;;;1.80;;
29814;SDS011;16708;50.426;7.664;2024-02-15T20:43:05;4.50;;;1.40;;
29814;SDS011;16708;50.426;7.664;2024-02-15T20:47:59;5.20;;;1.30;;
29814;SDS011;16708;50.426;7.664;2024-02-15T20:52:53;5.00;;;1.50;;
29814;SDS011;16708;50.426;7.664;2024-02-15T20:57:47;4.90;;;1.50;;
29814;SDS011;16708;50.426;7.664;2024-02-15T21:02:41;3.60;;;1.30;;
29814;SDS011;16708;50.426;7.664;2024-02-15T21:07:35;9.00;;;2.20;;
29814;SDS011;16708;50.426;7.664;2024-02-15T21:12:30;5.10;;;1.20;;
29814;SDS011;16708;50.426;7.664;2024-02-15T21:17:24;9.80;;;1.80;;
29814;SDS011;16708;50.426;7.664;2024-02-15T21:22:18;4.90;;;1.40;;
29814;SDS011;16708;50.426;7.664;2024-02-15T21:27:13;6.50;;;1.50;;
29814;SDS011;16708;50.426;7.664;2024-02-15T21:32:04;7.70;;;2.10;;
29814;SDS011;16708;50.426;7.664;2024-02-15T21:36:59;14.30;;;3.20;;
29814;SDS011;16708;50.426;7.664;2024-02-15T21:41:53;9.80;;;2.10;;
29814;SDS011;16708;50.426;7.664;2024-02-15T21:46:46;11.50;;;2.50;;
29814;SDS011;16708;50.426;7.664;2024-02-15T21:51:40;6.10;;;1.70;;
29814;SDS011;16708;50.426;7.664;2024-02-15T21:56:37;6.00;;;1.60;;
29814;SDS011;16708;50.426;7.664;2024-02-15T22:01:29;6.40;;;1.60;;
29814;SDS011;16708;50.426;7.664;2024-02-15T22:11:18;5.30;;;1.40;;
29814;SDS011;16708;50.426;7.664;2024-02-15T22:16:12;4.20;;;1.50;;
29814;SDS011;16708;50.426;7.664;2024-02-15T22:21:07;9.70;;;2.90;;
29814;SDS011;16708;50.426;7.664;2024-02-15T22:26:01;6.10;;;1.50;;
29814;SDS011;16708;50.426;7.664;2024-02-15T22:30:55;4.10;;;1.40;;
29814;SDS011;16708;50.426;7.664;2024-02-15T22:35:49;10.10;;;1.90;;
29814;SDS011;16708;50.426;7.664;2024-02-15T22:40:44;6.20;;;1.50;;
29814;SDS011;16708;50.426;7.664;2024-02-15T22:45:38;9.80;;;2.00;;
29814;SDS011;16708;50.426;7.664;2024-02-15T22:50:32;11.10;;;2.30;;
29814;SDS011;16708;50.426;7.664;2024-02-15T22:55:26;8.20;;;1.90;;
29814;SDS011;16708;50.426;7.664;2024-02-15T23:00:20;3.80;;;1.00;;
29814;SDS011;16708;50.426;7.664;2024-02-15T23:05:14;14.30;;;3.20;;
29814;SDS011;16708;50.426;7.664;2024-02-15T23:10:08;6.20;;;1.60;;
29814;SDS011;16708;50.426;7.664;2024-02-15T23:19:57;6.00;;;1.60;;
29814;SDS011;16708;50.426;7.664;2024-02-15T23:24:52;2.30;;;1.10;;
29814;SDS011;16708;50.426;7.664;2024-02-15T23:29:44;6.10;;;1.20;;
29814;SDS011;16708;50.426;7.664;2024-02-15T23:34:38;6.30;;;1.60;;
29814;SDS011;16708;50.426;7.664;2024-02-15T23:39:32;10.70;;;2.40;;
29814;SDS011;16708;50.426;7.664;2024-02-15T23:44:26;7.30;;;1.60;;
29814;SDS011;16708;50.426;7.664;2024-02-15T23:49:20;4.70;;;1.20;;
29814;SDS011;16708;50.426;7.664;2024-02-15T23:54:15;7.90;;;1.90;;
29814;SDS011;16708;50.426;7.664;2024-02-15T23:59:09;7.20;;;1.80;;
